サル島 の空港の天気 - METARとTAF

アミルカル・カブラル国際空港 ( GVAC / SID ) - カーボベルデ サル島
飛行場実況気象(Metar)
観測時間10/25 18:00 CVT (10/25 19:00 UTC)
風向・風速北東 10m/s
視程10km以上
天気現象
少しの雲 雲底高度 430m
全天の8割程度の雲 雲底高度 6100m
気温28℃
湿度62%
気圧1013hPa
METARGVAC 251900Z 04020KT 9999 FEW014 BKN200 28/20 Q1013 NOSIG
過去の天気等 Google飛行場航空写真 Wunderground天気予報

過去48時間のMETAR

飛行場予報(TAF)
発表時間: 10/25 16:00 CVT (10/25 17:00 UTC)
予報対象時間: 25日17時 CVT ~ 26日23時 CVT
風向・風速北東 10m/s
視程9000m
少しの雲 雲底高度 430m
26日11時 CVT ~ 26日15時 CVT に一時的に
風向・風速東北東 10m/s 瞬間風速 15m/s
TAF GVAC 251700Z 2518/2624 05020KT 9000 FEW014
TEMPO 2612/2616 06020G30KT